sensor_id;sensor_type;location;lat;lon;timestamp;P1;durP1;ratioP1;P2;durP2;ratioP2
67685;SDS011;54469;52.090;4.312;2023-02-08T00:00:03;25.6;;;10.8;;
67685;SDS011;54469;52.090;4.312;2023-02-08T00:05:02;21.4;;;11.4;;
67685;SDS011;54469;52.090;4.312;2023-02-08T00:10:02;21.4;;;11.4;;
67685;SDS011;54469;52.090;4.312;2023-02-08T00:15:03;21;;;9.4;;
67685;SDS011;54469;52.090;4.312;2023-02-08T00:20:03;21;;;9.4;;
67685;SDS011;54469;52.090;4.312;2023-02-08T00:25:03;18.899999999999995;;;9.699999999999998;;
67685;SDS011;54469;52.090;4.312;2023-02-08T00:30:03;21.6;;;10.1;;
67685;SDS011;54469;52.090;4.312;2023-02-08T00:35:03;21.6;;;10.1;;
67685;SDS011;54469;52.090;4.312;2023-02-08T00:40:02;21.6;;;10.1;;
67685;SDS011;54469;52.090;4.312;2023-02-08T00:45:02;23.8;;;10.6;;
67685;SDS011;54469;52.090;4.312;2023-02-08T00:50:03;23.8;;;10.6;;
67685;SDS011;54469;52.090;4.312;2023-02-08T00:55:02;23.8;;;10.6;;
67685;SDS011;54469;52.090;4.312;2023-02-08T01:00:03;19.600000000000005;;;10.3;;
67685;SDS011;54469;52.090;4.312;2023-02-08T01:05:03;19.600000000000005;;;10.3;;
67685;SDS011;54469;52.090;4.312;2023-02-08T01:10:03;19.600000000000005;;;10.3;;
67685;SDS011;54469;52.090;4.312;2023-02-08T01:15:03;25.3;;;10.5;;
67685;SDS011;54469;52.090;4.312;2023-02-08T01:20:02;20.8;;;9.5;;
67685;SDS011;54469;52.090;4.312;2023-02-08T01:25:02;20.8;;;9.5;;
67685;SDS011;54469;52.090;4.312;2023-02-08T01:30:03;20.8;;;9.5;;
67685;SDS011;54469;52.090;4.312;2023-02-08T01:35:02;20.8;;;9.5;;
67685;SDS011;54469;52.090;4.312;2023-02-08T01:40:02;20.8;;;9.5;;
67685;SDS011;54469;52.090;4.312;2023-02-08T01:45:18;20.8;;;9.5;;
67685;SDS011;54469;52.090;4.312;2023-02-08T01:50:03;20.8;;;9.5;;
67685;SDS011;54469;52.090;4.312;2023-02-08T01:55:04;20.8;;;9.5;;
67685;SDS011;54469;52.090;4.312;2023-02-08T02:00:03;20.8;;;9.5;;
67685;SDS011;54469;52.090;4.312;2023-02-08T02:05:02;20.8;;;9.5;;
67685;SDS011;54469;52.090;4.312;2023-02-08T02:10:04;20.8;;;9.5;;
67685;SDS011;54469;52.090;4.312;2023-02-08T02:15:03;18.3;;;9.6;;
67685;SDS011;54469;52.090;4.312;2023-02-08T02:20:06;22;;;9.800000000000002;;
67685;SDS011;54469;52.090;4.312;2023-02-08T02:25:08;22;;;9.800000000000002;;
67685;SDS011;54469;52.090;4.312;2023-02-08T02:30:40;18.399999999999995;;;9.300000000000002;;
67685;SDS011;54469;52.090;4.312;2023-02-08T02:35:04;18.399999999999995;;;9.300000000000002;;
67685;SDS011;54469;52.090;4.312;2023-02-08T02:40:09;18.399999999999995;;;9.300000000000002;;
67685;SDS011;54469;52.090;4.312;2023-02-08T02:45:04;18.399999999999995;;;9.300000000000002;;
67685;SDS011;54469;52.090;4.312;2023-02-08T02:50:04;18.399999999999995;;;9.300000000000002;;
67685;SDS011;54469;52.090;4.312;2023-02-08T02:55:03;18.399999999999995;;;9.300000000000002;;
67685;SDS011;54469;52.090;4.312;2023-02-08T03:00:06;21.1;;;10.3;;
67685;SDS011;54469;52.090;4.312;2023-02-08T03:05:04;20.6;;;9.300000000000002;;
67685;SDS011;54469;52.090;4.312;2023-02-08T03:10:05;17.899999999999995;;;8.699999999999998;;
67685;SDS011;54469;52.090;4.312;2023-02-08T03:15:05;17.899999999999995;;;8.699999999999998;;
67685;SDS011;54469;52.090;4.312;2023-02-08T03:20:04;21;;;9;;
67685;SDS011;54469;52.090;4.312;2023-02-08T03:25:04;21;;;9;;
67685;SDS011;54469;52.090;4.312;2023-02-08T03:30:05;18.600000000000005;;;9.6;;
67685;SDS011;54469;52.090;4.312;2023-02-08T03:35:03;22.9;;;10;;
67685;SDS011;54469;52.090;4.312;2023-02-08T03:40:03;18.399999999999995;;;10.3;;
67685;SDS011;54469;52.090;4.312;2023-02-08T03:45:04;18.399999999999995;;;10.3;;
67685;SDS011;54469;52.090;4.312;2023-02-08T03:50:04;29.1;;;10.4;;
67685;SDS011;54469;52.090;4.312;2023-02-08T03:55:04;17.100000000000005;;;9.6;;
67685;SDS011;54469;52.090;4.312;2023-02-08T04:00:05;17.100000000000005;;;9.6;;
67685;SDS011;54469;52.090;4.312;2023-02-08T04:05:03;17.100000000000005;;;9.6;;
67685;SDS011;54469;52.090;4.312;2023-02-08T04:10:03;17.100000000000005;;;9.6;;
67685;SDS011;54469;52.090;4.312;2023-02-08T04:15:03;17.100000000000005;;;9.6;;
67685;SDS011;54469;52.090;4.312;2023-02-08T04:20:03;22.1;;;9.9;;
67685;SDS011;54469;52.090;4.312;2023-02-08T04:25:02;17.7;;;9.199999999999998;;
67685;SDS011;54469;52.090;4.312;2023-02-08T04:30:02;20.2;;;9.800000000000002;;
67685;SDS011;54469;52.090;4.312;2023-02-08T04:35:02;25.6;;;9.699999999999998;;
67685;SDS011;54469;52.090;4.312;2023-02-08T04:40:02;21;;;10.3;;
67685;SDS011;54469;52.090;4.312;2023-02-08T04:45:03;18.600000000000005;;;9.699999999999998;;
67685;SDS011;54469;52.090;4.312;2023-02-08T04:50:03;22.1;;;9.5;;
67685;SDS011;54469;52.090;4.312;2023-02-08T04:55:03;22.2;;;10.9;;
67685;SDS011;54469;52.090;4.312;2023-02-08T05:00:02;19.5;;;10.199999999999998;;
67685;SDS011;54469;52.090;4.312;2023-02-08T05:05:02;19.5;;;10.199999999999998;;
67685;SDS011;54469;52.090;4.312;2023-02-08T05:10:03;23.7;;;10.6;;
67685;SDS011;54469;52.090;4.312;2023-02-08T05:15:03;20.399999999999995;;;10.199999999999998;;
67685;SDS011;54469;52.090;4.312;2023-02-08T05:20:04;20.399999999999995;;;10.199999999999998;;
67685;SDS011;54469;52.090;4.312;2023-02-08T05:25:02;18.399999999999995;;;8.9;;
67685;SDS011;54469;52.090;4.312;2023-02-08T05:30:03;18.399999999999995;;;8.9;;
67685;SDS011;54469;52.090;4.312;2023-02-08T05:35:02;18.399999999999995;;;8.9;;
67685;SDS011;54469;52.090;4.312;2023-02-08T05:40:03;18.399999999999995;;;8.9;;
67685;SDS011;54469;52.090;4.312;2023-02-08T05:45:03;18.399999999999995;;;8.9;;
67685;SDS011;54469;52.090;4.312;2023-02-08T05:50:03;18.399999999999995;;;8.9;;
67685;SDS011;54469;52.090;4.312;2023-02-08T05:55:02;18.399999999999995;;;8.9;;
67685;SDS011;54469;52.090;4.312;2023-02-08T06:00:03;18.399999999999995;;;8.9;;
67685;SDS011;54469;52.090;4.312;2023-02-08T06:05:03;18.399999999999995;;;8.9;;
67685;SDS011;54469;52.090;4.312;2023-02-08T06:10:03;19.3;;;9.9;;
67685;SDS011;54469;52.090;4.312;2023-02-08T06:15:03;19.3;;;9.9;;
67685;SDS011;54469;52.090;4.312;2023-02-08T06:20:03;19.3;;;9.9;;
67685;SDS011;54469;52.090;4.312;2023-02-08T06:25:02;19.3;;;9.9;;
67685;SDS011;54469;52.090;4.312;2023-02-08T06:30:03;18;;;8.6;;
67685;SDS011;54469;52.090;4.312;2023-02-08T06:35:03;17.3;;;9.6;;
67685;SDS011;54469;52.090;4.312;2023-02-08T06:40:02;21.4;;;9;;
67685;SDS011;54469;52.090;4.312;2023-02-08T06:45:02;17.600000000000005;;;8.9;;
67685;SDS011;54469;52.090;4.312;2023-02-08T06:50:03;17.600000000000005;;;8.9;;
67685;SDS011;54469;52.090;4.312;2023-02-08T06:55:03;19.2;;;7.2;;
67685;SDS011;54469;52.090;4.312;2023-02-08T07:00:03;15.8;;;8;;
67685;SDS011;54469;52.090;4.312;2023-02-08T07:05:02;15.8;;;8;;
67685;SDS011;54469;52.090;4.312;2023-02-08T07:10:03;15.8;;;8;;
67685;SDS011;54469;52.090;4.312;2023-02-08T07:15:03;18.600000000000005;;;9;;
67685;SDS011;54469;52.090;4.312;2023-02-08T07:20:03;18.100000000000005;;;7.9;;
67685;SDS011;54469;52.090;4.312;2023-02-08T07:25:02;18.100000000000005;;;9.6;;
67685;SDS011;54469;52.090;4.312;2023-02-08T07:30:02;18.100000000000005;;;9.6;;
67685;SDS011;54469;52.090;4.312;2023-02-08T07:35:02;18.100000000000005;;;9.6;;
67685;SDS011;54469;52.090;4.312;2023-02-08T07:40:03;17.600000000000005;;;8.199999999999998;;
67685;SDS011;54469;52.090;4.312;2023-02-08T07:45:02;17.600000000000005;;;8.199999999999998;;
67685;SDS011;54469;52.090;4.312;2023-02-08T07:50:03;17.600000000000005;;;8.199999999999998;;
67685;SDS011;54469;52.090;4.312;2023-02-08T07:55:03;17.600000000000005;;;8.199999999999998;;
67685;SDS011;54469;52.090;4.312;2023-02-08T08:00:02;17.600000000000005;;;8.199999999999998;;
67685;SDS011;54469;52.090;4.312;2023-02-08T08:05:03;19.600000000000005;;;9.1;;
67685;SDS011;54469;52.090;4.312;2023-02-08T08:10:02;13.5;;;6.1;;
67685;SDS011;54469;52.090;4.312;2023-02-08T08:15:03;17.600000000000005;;;8.1;;
67685;SDS011;54469;52.090;4.312;2023-02-08T08:20:03;20.9;;;9.5;;
67685;SDS011;54469;52.090;4.312;2023-02-08T08:25:02;14.6;;;7.6;;
67685;SDS011;54469;52.090;4.312;2023-02-08T08:30:04;18.7;;;9.1;;
67685;SDS011;54469;52.090;4.312;2023-02-08T08:35:03;14.7;;;8.300000000000002;;
67685;SDS011;54469;52.090;4.312;2023-02-08T08:40:02;14.7;;;8.300000000000002;;
67685;SDS011;54469;52.090;4.312;2023-02-08T08:45:03;20.8;;;9;;
67685;SDS011;54469;52.090;4.312;2023-02-08T08:50:03;20.8;;;9;;
67685;SDS011;54469;52.090;4.312;2023-02-08T08:55:02;16.899999999999995;;;8.699999999999998;;
67685;SDS011;54469;52.090;4.312;2023-02-08T09:00:03;16.899999999999995;;;8.699999999999998;;
67685;SDS011;54469;52.090;4.312;2023-02-08T09:05:03;12.2;;;6.9;;
67685;SDS011;54469;52.090;4.312;2023-02-08T09:10:02;13.2;;;7.9;;
67685;SDS011;54469;52.090;4.312;2023-02-08T09:15:02;16.8;;;9.800000000000002;;
67685;SDS011;54469;52.090;4.312;2023-02-08T09:20:04;16.8;;;9.800000000000002;;
67685;SDS011;54469;52.090;4.312;2023-02-08T09:25:02;14.3;;;8.699999999999998;;
67685;SDS011;54469;52.090;4.312;2023-02-08T09:30:02;15.1;;;9.9;;
67685;SDS011;54469;52.090;4.312;2023-02-08T09:35:03;17.7;;;9.9;;
67685;SDS011;54469;52.090;4.312;2023-02-08T09:40:03;14.3;;;9.800000000000002;;
67685;SDS011;54469;52.090;4.312;2023-02-08T09:45:06;14.3;;;9.800000000000002;;
67685;SDS011;54469;52.090;4.312;2023-02-08T09:50:04;15.4;;;10.9;;
67685;SDS011;54469;52.090;4.312;2023-02-08T09:55:03;15.4;;;10.9;;
67685;SDS011;54469;52.090;4.312;2023-02-08T10:00:03;19.2;;;10.5;;
67685;SDS011;54469;52.090;4.312;2023-02-08T10:05:04;15.2;;;9.699999999999998;;
67685;SDS011;54469;52.090;4.312;2023-02-08T10:10:04;15.2;;;9.699999999999998;;
67685;SDS011;54469;52.090;4.312;2023-02-08T10:15:06;18.5;;;10.5;;
67685;SDS011;54469;52.090;4.312;2023-02-08T10:20:03;13.5;;;10.199999999999998;;
67685;SDS011;54469;52.090;4.312;2023-02-08T10:25:07;13.5;;;10.199999999999998;;
67685;SDS011;54469;52.090;4.312;2023-02-08T10:30:09;13.5;;;10.199999999999998;;
67685;SDS011;54469;52.090;4.312;2023-02-08T10:35:03;18;;;9.800000000000002;;
67685;SDS011;54469;52.090;4.312;2023-02-08T10:40:07;15.2;;;10;;
67685;SDS011;54469;52.090;4.312;2023-02-08T10:45:03;15.2;;;10;;
67685;SDS011;54469;52.090;4.312;2023-02-08T10:50:03;15.2;;;10;;
67685;SDS011;54469;52.090;4.312;2023-02-08T10:55:10;15.2;;;10;;
67685;SDS011;54469;52.090;4.312;2023-02-08T11:00:04;15.2;;;10;;
67685;SDS011;54469;52.090;4.312;2023-02-08T11:05:04;15.2;;;10;;
67685;SDS011;54469;52.090;4.312;2023-02-08T11:10:12;21;;;9.699999999999998;;
67685;SDS011;54469;52.090;4.312;2023-02-08T11:15:03;13.4;;;9.5;;
67685;SDS011;54469;52.090;4.312;2023-02-08T11:20:03;12.9;;;8.5;;
67685;SDS011;54469;52.090;4.312;2023-02-08T11:25:03;12.9;;;8.5;;
67685;SDS011;54469;52.090;4.312;2023-02-08T11:30:35;12.9;;;8.5;;
67685;SDS011;54469;52.090;4.312;2023-02-08T11:35:10;12.9;;;8.5;;
67685;SDS011;54469;52.090;4.312;2023-02-08T11:40:02;12.9;;;8.5;;
67685;SDS011;54469;52.090;4.312;2023-02-08T11:45:02;22.2;;;8.9;;
67685;SDS011;54469;52.090;4.312;2023-02-08T11:50:03;11.2;;;7.2;;
67685;SDS011;54469;52.090;4.312;2023-02-08T11:55:11;11.2;;;7.2;;
67685;SDS011;54469;52.090;4.312;2023-02-08T12:00:16;11.2;;;7.2;;
67685;SDS011;54469;52.090;4.312;2023-02-08T12:05:03;14;;;8;;
67685;SDS011;54469;52.090;4.312;2023-02-08T12:10:07;14;;;8;;
67685;SDS011;54469;52.090;4.312;2023-02-08T12:15:04;9.300000000000002;;;7.9;;
67685;SDS011;54469;52.090;4.312;2023-02-08T12:20:27;9.300000000000002;;;7.9;;
67685;SDS011;54469;52.090;4.312;2023-02-08T12:25:08;9.300000000000002;;;7.9;;
67685;SDS011;54469;52.090;4.312;2023-02-08T12:30:04;10.1;;;6.7;;
67685;SDS011;54469;52.090;4.312;2023-02-08T12:35:16;10.1;;;6.7;;
67685;SDS011;54469;52.090;4.312;2023-02-08T12:40:07;10.1;;;6.7;;
67685;SDS011;54469;52.090;4.312;2023-02-08T12:45:07;10.1;;;6.7;;
67685;SDS011;54469;52.090;4.312;2023-02-08T12:50:05;9.800000000000002;;;5.7;;
67685;SDS011;54469;52.090;4.312;2023-02-08T12:55:04;9.5;;;6.7;;
67685;SDS011;54469;52.090;4.312;2023-02-08T13:00:04;9.5;;;6.7;;
67685;SDS011;54469;52.090;4.312;2023-02-08T13:05:03;12.1;;;6;;
67685;SDS011;54469;52.090;4.312;2023-02-08T13:10:03;6.6;;;5.5;;
67685;SDS011;54469;52.090;4.312;2023-02-08T13:15:05;6.6;;;5.5;;
67685;SDS011;54469;52.090;4.312;2023-02-08T13:20:04;6.6;;;5.5;;
67685;SDS011;54469;52.090;4.312;2023-02-08T13:25:02;9.800000000000002;;;6;;
67685;SDS011;54469;52.090;4.312;2023-02-08T13:30:03;5.7;;;4.5;;
67685;SDS011;54469;52.090;4.312;2023-02-08T13:35:03;5.7;;;4.5;;
67685;SDS011;54469;52.090;4.312;2023-02-08T13:40:03;8.4;;;5.8;;
67685;SDS011;54469;52.090;4.312;2023-02-08T13:45:03;8.4;;;5.8;;
67685;SDS011;54469;52.090;4.312;2023-02-08T13:50:02;8.4;;;5.8;;
67685;SDS011;54469;52.090;4.312;2023-02-08T13:55:38;8.4;;;5.8;;
67685;SDS011;54469;52.090;4.312;2023-02-08T14:00:20;8.4;;;5.8;;
67685;SDS011;54469;52.090;4.312;2023-02-08T14:06:14;8.4;;;5.8;;
67685;SDS011;54469;52.090;4.312;2023-02-08T14:10:04;8.4;;;5.8;;
67685;SDS011;54469;52.090;4.312;2023-02-08T14:15:36;8.4;;;5.8;;
67685;SDS011;54469;52.090;4.312;2023-02-08T14:20:04;8.4;;;5.8;;
67685;SDS011;54469;52.090;4.312;2023-02-08T14:25:03;8.4;;;5.8;;
67685;SDS011;54469;52.090;4.312;2023-02-08T14:30:03;8.4;;;5.8;;
67685;SDS011;54469;52.090;4.312;2023-02-08T14:35:03;8.4;;;5.8;;
67685;SDS011;54469;52.090;4.312;2023-02-08T14:41:08;8.4;;;5.8;;
67685;SDS011;54469;52.090;4.312;2023-02-08T14:45:03;8.4;;;5.8;;
67685;SDS011;54469;52.090;4.312;2023-02-08T14:50:04;8.4;;;5.8;;
67685;SDS011;54469;52.090;4.312;2023-02-08T14:55:03;8.4;;;5.8;;
67685;SDS011;54469;52.090;4.312;2023-02-08T15:00:03;8.4;;;5.8;;
67685;SDS011;54469;52.090;4.312;2023-02-08T15:05:02;8.4;;;5.8;;
67685;SDS011;54469;52.090;4.312;2023-02-08T15:10:03;8.4;;;5.8;;
67685;SDS011;54469;52.090;4.312;2023-02-08T15:15:02;8.4;;;5.8;;
67685;SDS011;54469;52.090;4.312;2023-02-08T15:20:03;8.4;;;5.8;;
67685;SDS011;54469;52.090;4.312;2023-02-08T15:25:20;8.4;;;5.8;;
67685;SDS011;54469;52.090;4.312;2023-02-08T15:30:03;8.4;;;5.8;;
67685;SDS011;54469;52.090;4.312;2023-02-08T15:35:02;8.4;;;5.8;;
67685;SDS011;54469;52.090;4.312;2023-02-08T15:40:02;8.4;;;5.8;;
67685;SDS011;54469;52.090;4.312;2023-02-08T15:45:03;8.4;;;5.8;;
67685;SDS011;54469;52.090;4.312;2023-02-08T15:50:02;8.4;;;5.8;;
67685;SDS011;54469;52.090;4.312;2023-02-08T15:55:05;8.4;;;5.8;;
67685;SDS011;54469;52.090;4.312;2023-02-08T16:00:03;8.4;;;5.8;;
67685;SDS011;54469;52.090;4.312;2023-02-08T16:05:10;8.4;;;5.8;;
67685;SDS011;54469;52.090;4.312;2023-02-08T16:10:04;8.4;;;5.8;;
67685;SDS011;54469;52.090;4.312;2023-02-08T16:15:03;8.4;;;5.8;;
67685;SDS011;54469;52.090;4.312;2023-02-08T16:20:19;8.4;;;5.8;;
67685;SDS011;54469;52.090;4.312;2023-02-08T16:25:40;8.4;;;5.8;;
67685;SDS011;54469;52.090;4.312;2023-02-08T16:30:02;8.4;;;5.8;;
67685;SDS011;54469;52.090;4.312;2023-02-08T16:35:10;8.4;;;5.8;;
67685;SDS011;54469;52.090;4.312;2023-02-08T16:40:04;13.5;;;6;;
67685;SDS011;54469;52.090;4.312;2023-02-08T16:45:12;13.5;;;6;;
67685;SDS011;54469;52.090;4.312;2023-02-08T16:50:03;10.7;;;6.1;;
67685;SDS011;54469;52.090;4.312;2023-02-08T16:55:03;10.7;;;6.1;;
67685;SDS011;54469;52.090;4.312;2023-02-08T17:00:10;17.3;;;6.7;;
67685;SDS011;54469;52.090;4.312;2023-02-08T17:05:03;13.1;;;6.8;;
67685;SDS011;54469;52.090;4.312;2023-02-08T17:10:03;11.3;;;5.7;;
67685;SDS011;54469;52.090;4.312;2023-02-08T17:15:02;15.1;;;6.9;;
67685;SDS011;54469;52.090;4.312;2023-02-08T17:20:02;15.1;;;6.9;;
67685;SDS011;54469;52.090;4.312;2023-02-08T17:25:02;13.1;;;6;;
67685;SDS011;54469;52.090;4.312;2023-02-08T17:30:03;15.6;;;6.3;;
67685;SDS011;54469;52.090;4.312;2023-02-08T17:35:03;15.6;;;6.3;;
67685;SDS011;54469;52.090;4.312;2023-02-08T17:40:02;13.1;;;6;;
67685;SDS011;54469;52.090;4.312;2023-02-08T17:45:02;13.1;;;6;;
67685;SDS011;54469;52.090;4.312;2023-02-08T17:50:03;10.8;;;5.8;;
67685;SDS011;54469;52.090;4.312;2023-02-08T17:55:02;16.2;;;6.7;;
67685;SDS011;54469;52.090;4.312;2023-02-08T18:00:03;12.3;;;6.5;;
67685;SDS011;54469;52.090;4.312;2023-02-08T18:05:03;12.3;;;6.5;;
67685;SDS011;54469;52.090;4.312;2023-02-08T18:10:02;12.3;;;6.5;;
67685;SDS011;54469;52.090;4.312;2023-02-08T18:15:04;13.7;;;5.4;;
67685;SDS011;54469;52.090;4.312;2023-02-08T18:20:03;17.100000000000005;;;6.8;;
67685;SDS011;54469;52.090;4.312;2023-02-08T18:25:03;13.8;;;7;;
67685;SDS011;54469;52.090;4.312;2023-02-08T18:30:02;13.8;;;7;;
67685;SDS011;54469;52.090;4.312;2023-02-08T18:35:02;13.8;;;7;;
67685;SDS011;54469;52.090;4.312;2023-02-08T18:40:03;13.8;;;7;;
67685;SDS011;54469;52.090;4.312;2023-02-08T18:45:03;20.3;;;8.800000000000002;;
67685;SDS011;54469;52.090;4.312;2023-02-08T18:50:03;21.6;;;11;;
67685;SDS011;54469;52.090;4.312;2023-02-08T18:55:03;20.5;;;8.800000000000002;;
67685;SDS011;54469;52.090;4.312;2023-02-08T19:00:03;16.899999999999995;;;8.699999999999998;;
67685;SDS011;54469;52.090;4.312;2023-02-08T19:05:03;21.2;;;9.699999999999998;;
67685;SDS011;54469;52.090;4.312;2023-02-08T19:10:03;25.2;;;9.4;;
67685;SDS011;54469;52.090;4.312;2023-02-08T19:15:03;17.899999999999995;;;8.4;;
67685;SDS011;54469;52.090;4.312;2023-02-08T19:20:03;20.8;;;9.300000000000002;;
67685;SDS011;54469;52.090;4.312;2023-02-08T19:25:03;13.9;;;6.9;;
67685;SDS011;54469;52.090;4.312;2023-02-08T19:30:03;16;;;7.1;;
67685;SDS011;54469;52.090;4.312;2023-02-08T19:35:03;16;;;7.1;;
67685;SDS011;54469;52.090;4.312;2023-02-08T19:40:02;16;;;7.1;;
67685;SDS011;54469;52.090;4.312;2023-02-08T19:45:02;16;;;7.1;;
67685;SDS011;54469;52.090;4.312;2023-02-08T19:50:03;15.5;;;8.1;;
67685;SDS011;54469;52.090;4.312;2023-02-08T19:55:02;19.3;;;7.8;;
67685;SDS011;54469;52.090;4.312;2023-02-08T20:00:03;17.100000000000005;;;7.2;;
67685;SDS011;54469;52.090;4.312;2023-02-08T20:05:03;17.100000000000005;;;7.2;;
67685;SDS011;54469;52.090;4.312;2023-02-08T20:10:03;14.9;;;6.8;;
67685;SDS011;54469;52.090;4.312;2023-02-08T20:15:03;16.899999999999995;;;6.6;;
67685;SDS011;54469;52.090;4.312;2023-02-08T20:20:03;13.7;;;6.4;;
67685;SDS011;54469;52.090;4.312;2023-02-08T20:25:03;18.899999999999995;;;6.8;;
67685;SDS011;54469;52.090;4.312;2023-02-08T20:30:03;18.899999999999995;;;6.8;;
67685;SDS011;54469;52.090;4.312;2023-02-08T20:35:02;15.8;;;6.9;;
67685;SDS011;54469;52.090;4.312;2023-02-08T20:40:03;11.3;;;5.5;;
67685;SDS011;54469;52.090;4.312;2023-02-08T20:45:03;18.600000000000005;;;7.3;;
67685;SDS011;54469;52.090;4.312;2023-02-08T20:50:03;16.5;;;7.3;;
67685;SDS011;54469;52.090;4.312;2023-02-08T20:55:03;16.5;;;7.3;;
67685;SDS011;54469;52.090;4.312;2023-02-08T21:00:02;20.6;;;8.1;;
67685;SDS011;54469;52.090;4.312;2023-02-08T21:05:03;20.6;;;8.1;;
67685;SDS011;54469;52.090;4.312;2023-02-08T21:10:02;20.6;;;8.1;;
67685;SDS011;54469;52.090;4.312;2023-02-08T21:15:02;20.6;;;8.1;;
67685;SDS011;54469;52.090;4.312;2023-02-08T21:20:02;13.6;;;7.4;;
67685;SDS011;54469;52.090;4.312;2023-02-08T21:25:03;14.8;;;5.8;;
67685;SDS011;54469;52.090;4.312;2023-02-08T21:30:03;14.8;;;5.8;;
67685;SDS011;54469;52.090;4.312;2023-02-08T21:35:03;17.899999999999995;;;7.2;;
67685;SDS011;54469;52.090;4.312;2023-02-08T21:40:03;18.399999999999995;;;10.1;;
67685;SDS011;54469;52.090;4.312;2023-02-08T21:45:03;14.4;;;7.6;;
67685;SDS011;54469;52.090;4.312;2023-02-08T21:50:03;14.1;;;6.4;;
67685;SDS011;54469;52.090;4.312;2023-02-08T21:55:03;14.1;;;6.4;;
67685;SDS011;54469;52.090;4.312;2023-02-08T22:00:03;10.6;;;5.5;;
67685;SDS011;54469;52.090;4.312;2023-02-08T22:05:02;17.100000000000005;;;6;;
67685;SDS011;54469;52.090;4.312;2023-02-08T22:10:05;12;;;5.2;;
67685;SDS011;54469;52.090;4.312;2023-02-08T22:15:02;12;;;5.2;;
67685;SDS011;54469;52.090;4.312;2023-02-08T22:20:02;14.3;;;6.6;;
67685;SDS011;54469;52.090;4.312;2023-02-08T22:25:02;14.3;;;6.6;;
67685;SDS011;54469;52.090;4.312;2023-02-08T22:30:03;14.3;;;6.6;;
67685;SDS011;54469;52.090;4.312;2023-02-08T22:35:03;14.3;;;6.6;;
67685;SDS011;54469;52.090;4.312;2023-02-08T22:40:03;9.4;;;5;;
67685;SDS011;54469;52.090;4.312;2023-02-08T22:45:03;12.5;;;5.7;;
67685;SDS011;54469;52.090;4.312;2023-02-08T22:50:08;7.4;;;3.4;;
67685;SDS011;54469;52.090;4.312;2023-02-08T22:55:03;10.4;;;4.6;;
67685;SDS011;54469;52.090;4.312;2023-02-08T23:00:04;10.1;;;5.8;;
67685;SDS011;54469;52.090;4.312;2023-02-08T23:05:03;10.1;;;5.8;;
67685;SDS011;54469;52.090;4.312;2023-02-08T23:10:02;11.3;;;4.4;;
67685;SDS011;54469;52.090;4.312;2023-02-08T23:15:03;9.199999999999998;;;5.2;;
67685;SDS011;54469;52.090;4.312;2023-02-08T23:20:02;10;;;3.8;;
67685;SDS011;54469;52.090;4.312;2023-02-08T23:25:02;10;;;3.8;;
67685;SDS011;54469;52.090;4.312;2023-02-08T23:30:03;10;;;3.8;;
67685;SDS011;54469;52.090;4.312;2023-02-08T23:35:03;7.8;;;4.1;;
67685;SDS011;54469;52.090;4.312;2023-02-08T23:40:03;7.8;;;4.1;;
67685;SDS011;54469;52.090;4.312;2023-02-08T23:45:03;9.9;;;4.5;;
67685;SDS011;54469;52.090;4.312;2023-02-08T23:50:03;7.5;;;3.6;;
67685;SDS011;54469;52.090;4.312;2023-02-08T23:55:03;10.4;;;4.7;;
